Time;durP1;ratioP1;P1;durP2;ratioP2;P2;SDS_P1;SDS_P2;PMS_P1;PMS_P2;Temp;Humidity;BMP_temperature;BMP_pressure;BME280_temperature;BME280_humidity;BME280_pressure;Samples;Min_cycle;Max_cycle;Signal;HPM_P1;HPM_P2
2023/01/25 00:00:32;;;;;;;22.60;14.77;;;1.80;91.30;;;1.39;82.61;99654.94;5077104;28;20482;-74
2023/01/25 00:03:01;;;;;;;20.93;14.17;;;1.80;91.00;;;1.34;82.61;99651.75;5077890;28;20547;-73
2023/01/25 00:05:30;;;;;;;22.13;14.20;;;1.80;90.90;;;1.30;82.81;99647.63;5079854;28;20459;-73
2023/01/25 00:07:57;;;;;;;21.40;13.33;;;1.90;90.90;;;1.27;82.47;99633.56;5085987;28;20471;-74
2023/01/25 00:10:24;;;;;;;24.90;15.73;;;1.80;90.90;;;1.36;82.78;99650.66;5083230;28;20482;-74
2023/01/25 00:12:52;;;;;;;23.27;14.23;;;1.90;90.80;;;1.16;82.51;99648.66;5082653;28;20465;-74
2023/01/25 00:15:19;;;;;;;22.40;14.47;;;1.90;90.20;;;0.92;83.31;99636.22;5072473;28;20958;-74
2023/01/25 00:17:46;;;;;;;21.10;15.33;;;1.70;90.50;;;1.21;83.25;99667.81;5086611;28;20443;-74
2023/01/25 00:20:16;;;;;;;21.40;14.23;;;1.80;90.70;;;0.83;82.70;99590.69;5082305;28;20520;-73
2023/01/25 00:22:43;;;;;;;22.37;14.73;;;1.70;90.60;;;0.99;83.49;99651.63;5082208;28;20506;-73
2023/01/25 00:25:10;;;;;;;19.40;14.30;;;1.70;90.80;;;0.95;83.81;99651.94;5077530;28;20488;-73
2023/01/25 00:27:38;;;;;;;23.50;14.70;;;1.60;91.30;;;0.98;83.75;99651.72;5079837;28;20466;-73
2023/01/25 00:30:07;;;;;;;20.27;14.30;;;1.60;91.30;;;0.91;83.20;99623.88;5078594;28;20451;-74
2023/01/25 00:32:54;;;;;;;20.10;14.13;;;1.70;90.90;;;0.80;83.69;99654.78;5076430;28;20449;-73
2023/01/25 00:35:23;;;;;;;19.10;12.53;;;1.60;90.40;;;0.96;83.25;99656.31;5074975;28;20498;-73
2023/01/25 00:37:53;;;;;;;20.90;14.03;;;1.60;90.60;;;1.08;83.10;99649.25;5082232;28;20540;-73
2023/01/25 00:40:20;;;;;;;21.17;13.70;;;1.60;90.90;;;0.94;83.44;99647.59;5091713;28;22023;-75
2023/01/25 00:42:48;;;;;;;24.57;15.27;;;1.60;90.80;;;0.84;83.69;99632.31;5079801;28;20475;-74
2023/01/25 00:45:15;;;;;;;22.83;14.83;;;1.50;91.00;;;1.00;83.11;99644.50;5074657;28;20537;-74
2023/01/25 00:47:42;;;;;;;21.03;13.17;;;1.60;90.90;;;1.09;82.72;99643.78;5080209;28;20545;-73
2023/01/25 00:50:11;;;;;;;19.17;12.77;;;1.60;90.70;;;0.96;82.59;99641.19;5075835;28;20875;-72
2023/01/25 00:52:40;;;;;;;23.07;14.70;;;1.60;90.20;;;0.78;83.77;99642.56;5075901;28;20532;-73
2023/01/25 00:55:08;;;;;;;24.73;14.70;;;1.50;90.50;;;0.64;84.34;99639.09;5079209;28;20840;-75
2023/01/25 00:57:36;;;;;;;26.03;15.93;;;1.40;91.00;;;0.65;84.86;99639.94;5076956;28;20598;-75
2023/01/25 01:00:04;;;;;;;21.47;14.90;;;1.40;91.60;;;0.68;84.72;99634.38;5078257;28;20449;-73
2023/01/25 01:02:31;;;;;;;26.03;16.47;;;1.40;91.70;;;0.72;84.57;99635.88;5080968;28;20956;-72
2023/01/25 01:04:59;;;;;;;24.27;15.07;;;1.40;91.90;;;0.69;84.43;99636.09;5078799;28;20737;-74
2023/01/25 01:07:27;;;;;;;23.77;16.03;;;1.40;91.60;;;0.81;84.29;99629.84;5083160;28;20471;-73
2023/01/25 01:09:56;;;;;;;22.30;14.60;;;1.40;91.60;;;0.92;84.10;99621.09;5090177;28;20458;-73
2023/01/25 01:12:23;;;;;;;21.43;14.67;;;1.40;91.80;;;0.82;83.77;99610.25;5087742;28;20505;-71
2023/01/25 01:14:50;;;;;;;22.47;15.03;;;1.40;91.60;;;0.84;83.71;99632.31;5085579;28;20450;-74
2023/01/25 01:17:18;;;;;;;22.43;15.23;;;1.40;91.40;;;0.94;83.69;99634.28;5084218;28;20459;-72
2023/01/25 01:19:45;;;;;;;21.03;15.10;;;1.40;91.90;;;0.79;83.59;99613.16;5097565;28;21343;-72
2023/01/25 01:22:12;;;;;;;22.67;16.50;;;1.40;91.20;;;0.75;83.45;99611.69;5080571;28;20442;-72
2023/01/25 01:24:40;;;;;;;21.77;14.40;;;1.40;91.00;;;0.77;84.00;99638.22;5079620;28;20485;-72
2023/01/25 01:27:09;;;;;;;21.00;14.20;;;1.40;91.30;;;0.79;83.30;99623.81;5087284;28;20450;-73
2023/01/25 01:29:37;;;;;;;21.47;14.43;;;1.50;91.00;;;0.79;83.25;99631.78;5088051;28;20864;-72
2023/01/25 01:32:06;;;;;;;26.47;15.97;;;1.40;90.70;;;0.80;83.45;99637.97;5106057;28;20453;-73
2023/01/25 01:34:33;;;;;;;23.90;16.60;;;1.40;91.30;;;0.92;83.31;99625.56;5062104;28;20466;-72
2023/01/25 01:37:01;;;;;;;24.33;14.97;;;1.40;91.20;;;0.85;82.82;99614.53;5080287;28;20545;-73
2023/01/25 01:39:28;;;;;;;22.30;15.50;;;1.50;90.90;;;0.67;83.53;99627.38;5075940;28;20456;-74
2023/01/25 01:41:55;;;;;;;24.73;15.70;;;1.40;90.90;;;0.67;83.51;99616.72;5077716;28;20460;-74
2023/01/25 01:44:46;;;;;;;22.10;14.80;;;1.40;91.10;;;0.81;83.00;99629.84;5086215;28;20965;-73
2023/01/25 01:47:19;;;;;;;23.13;14.40;;;1.40;91.00;;;0.83;83.27;99622.63;5080178;28;20530;-73
2023/01/25 01:49:53;;;;;;;23.97;14.03;;;1.40;90.90;;;0.74;82.91;99628.63;5082600;28;20454;-74
2023/01/25 01:52:25;;;;;;;25.87;15.40;;;1.40;90.40;;;0.56;83.99;99613.06;5087264;28;20463;-72
2023/01/25 01:54:57;;;;;;;26.00;16.37;;;1.40;90.70;;;0.60;84.41;99628.78;5085484;28;20507;-73
2023/01/25 01:57:31;;;;;;;22.03;15.40;;;1.30;91.10;;;0.59;83.82;99600.50;5085873;28;20451;-74
2023/01/25 02:00:06;;;;;;;23.70;16.33;;;1.30;91.40;;;0.91;82.76;99623.88;5085465;28;20541;-72
2023/01/25 02:02:34;;;;;;;23.37;15.73;;;1.40;91.00;;;0.79;83.53;99625.63;5080365;28;20462;-73
2023/01/25 02:05:05;;;;;;;23.17;15.87;;;1.40;91.30;;;1.02;82.90;99623.06;5076197;28;20548;-73
2023/01/25 02:07:35;;;;;;;21.00;15.27;;;1.40;90.90;;;1.01;82.91;99624.03;5077379;28;20447;-73
2023/01/25 02:10:05;;;;;;;27.90;15.37;;;1.50;90.90;;;0.94;82.76;99619.19;5086643;28;20450;-72
2023/01/25 02:12:33;;;;;;;24.10;15.70;;;1.50;90.60;;;0.95;82.65;99622.66;5081638;28;20539;-71
2023/01/25 02:15:02;;;;;;;27.67;16.83;;;1.50;90.50;;;1.07;82.11;99624.41;5080235;28;20451;-72
2023/01/25 02:17:32;;;;;;;25.77;16.93;;;1.60;90.30;;;1.09;82.21;99624.31;5085196;28;20529;-73
2023/01/25 02:20:09;;;;;;;22.30;14.60;;;1.60;90.20;;;0.62;82.86;99624.19;5096578;28;20459;-75
2023/01/25 02:22:45;;;;;;;25.60;14.87;;;1.50;90.10;;;0.72;83.76;99624.38;5079473;28;20846;-73
2023/01/25 02:25:16;;;;;;;21.80;14.40;;;1.40;90.60;;;0.66;83.42;99605.25;5076706;28;20459;-72
2023/01/25 02:27:50;;;;;;;24.30;15.33;;;1.40;91.20;;;0.98;82.69;99617.09;5080441;28;20466;-72
2023/01/25 02:30:17;;;;;;;22.07;13.57;;;1.40;90.90;;;0.72;83.08;99592.44;5076603;28;20800;-71
2023/01/25 02:32:45;;;;;;;19.83;15.57;;;1.40;90.70;;;0.77;82.88;99627.56;5077446;28;20459;-72
2023/01/25 02:35:19;;;;;;;23.27;16.37;;;1.40;90.30;;;0.87;82.89;99617.91;5080939;28;20503;-72
2023/01/25 02:37:47;;;;;;;21.97;14.77;;;1.40;90.60;;;0.90;83.10;99619.50;5083536;28;20451;-72
2023/01/25 02:40:16;;;;;;;22.53;15.00;;;1.40;90.60;;;0.72;82.61;99603.94;5081287;28;20520;-73
2023/01/25 02:42:45;;;;;;;21.23;13.37;;;1.40;90.40;;;0.49;83.70;99595.81;5097940;28;20473;-73
2023/01/25 02:45:17;;;;;;;21.57;13.93;;;1.40;90.50;;;0.62;83.31;99624.19;5082702;28;20490;-72
2023/01/25 02:47:47;;;;;;;21.93;13.80;;;1.30;90.50;;;0.56;83.48;99621.03;5085963;28;20466;-72
2023/01/25 02:50:14;;;;;;;23.70;14.10;;;1.30;90.70;;;0.61;83.58;99620.72;5080634;28;20452;-72
2023/01/25 02:52:41;;;;;;;21.70;14.00;;;1.30;90.80;;;0.47;84.13;99610.22;5090984;28;20450;-72
2023/01/25 02:55:10;;;;;;;22.87;14.17;;;1.20;90.60;;;0.72;83.24;99617.25;5076265;28;20966;-72
2023/01/25 02:57:38;;;;;;;25.00;14.73;;;1.30;91.10;;;0.81;83.02;99623.72;5099725;28;20474;-73
2023/01/25 03:00:08;;;;;;;21.60;14.10;;;1.30;91.00;;;0.72;82.08;99619.91;5078945;28;20904;-73
2023/01/25 03:02:35;;;;;;;22.60;14.50;;;1.40;89.70;;;0.77;82.27;99615.09;5080175;28;20457;-73
2023/01/25 03:05:03;;;;;;;21.50;12.83;;;1.40;89.40;;;0.64;83.24;99619.59;5080328;28;20471;-73
2023/01/25 03:07:30;;;;;;;21.43;13.93;;;1.30;90.20;;;0.51;82.70;99617.84;5084168;28;20508;-72
2023/01/25 03:09:57;;;;;;;19.30;13.47;;;1.30;89.90;;;0.49;83.32;99609.13;5077373;28;20634;-74
2023/01/25 03:12:24;;;;;;;23.57;15.13;;;1.20;90.30;;;0.37;83.39;99608.22;5073969;28;20521;-73
2023/01/25 03:14:53;;;;;;;18.70;12.43;;;1.20;90.30;;;0.36;83.43;99608.31;5083042;28;20492;-74
2023/01/25 03:17:20;;;;;;;21.13;13.00;;;1.10;90.30;;;0.44;83.70;99605.97;5084936;28;20875;-73
2023/01/25 03:19:47;;;;;;;17.87;12.77;;;1.10;90.50;;;0.47;83.19;99597.75;5079254;28;20553;-74
2023/01/25 03:22:14;;;;;;;21.50;13.67;;;1.10;90.60;;;0.38;83.12;99554.06;5085008;28;20472;-74
2023/01/25 03:24:41;;;;;;;20.97;14.10;;;1.20;90.80;;;0.45;83.24;99586.38;5083165;28;20481;-73
2023/01/25 03:27:13;;;;;;;20.30;12.40;;;1.10;90.50;;;0.55;82.97;99600.72;5077431;28;20464;-74
2023/01/25 03:29:41;;;;;;;19.73;12.73;;;1.20;90.40;;;0.66;82.73;99599.91;5067656;28;21102;-73
2023/01/25 03:32:09;;;;;;;21.70;13.27;;;1.30;90.30;;;0.77;82.49;99601.78;5088403;28;20455;-73
2023/01/25 03:34:37;;;;;;;24.30;14.33;;;1.30;90.10;;;0.74;82.45;99596.69;5071737;28;20455;-73
2023/01/25 03:37:04;;;;;;;16.03;11.87;;;1.30;90.10;;;0.60;82.63;99588.88;5081110;28;20455;-72
2023/01/25 03:39:31;;;;;;;18.87;12.30;;;1.30;89.40;;;0.61;82.25;99595.91;5086032;28;20479;-73
2023/01/25 03:41:58;;;;;;;22.70;14.07;;;1.30;89.30;;;0.49;82.93;99592.34;5082572;28;20455;-72
2023/01/25 03:44:26;;;;;;;19.47;11.50;;;1.30;89.50;;;0.54;82.74;99579.53;5078690;28;20522;-72
2023/01/25 03:46:53;;;;;;;18.57;12.33;;;1.30;90.00;;;-0.08;82.77;99493.63;5082459;28;20459;-73
2023/01/25 03:49:22;;;;;;;21.70;12.20;;;1.20;89.90;;;0.47;83.38;99579.13;5086360;28;20965;-72
2023/01/25 03:51:49;;;;;;;18.90;11.73;;;1.20;90.00;;;0.60;82.56;99567.59;5083036;28;20459;-70
2023/01/25 03:54:16;;;;;;;20.33;12.43;;;1.20;90.10;;;0.40;82.90;99569.94;5077263;28;20466;-72
2023/01/25 03:56:43;;;;;;;20.80;13.17;;;1.20;89.40;;;0.53;82.85;99568.06;5072912;28;20456;-71
2023/01/25 03:59:11;;;;;;;17.97;12.90;;;1.20;90.00;;;0.41;83.09;99563.63;5086400;28;20455;-71
2023/01/25 04:01:38;;;;;;;20.70;13.17;;;1.20;90.00;;;0.58;83.14;99578.34;5083513;28;20481;-71
2023/01/25 04:04:06;;;;;;;20.20;12.87;;;1.20;90.30;;;0.69;82.13;99572.25;5100173;28;21087;-73
2023/01/25 04:06:34;;;;;;;18.80;12.20;;;1.30;90.20;;;0.49;82.70;99539.97;5089417;28;20454;-71
2023/01/25 04:09:02;;;;;;;24.83;13.83;;;1.30;90.10;;;0.75;82.25;99561.13;5081895;28;20532;-71
2023/01/25 04:11:29;;;;;;;20.20;13.10;;;1.30;90.30;;;0.77;82.51;99569.84;5081813;28;20520;-71
2023/01/25 04:13:56;;;;;;;17.93;12.57;;;1.30;90.40;;;0.80;82.46;99564.28;5086658;28;20453;-71
2023/01/25 04:16:23;;;;;;;18.60;12.87;;;1.30;90.30;;;0.60;83.36;99559.63;5086113;28;20473;-73
2023/01/25 04:18:50;;;;;;;19.23;14.40;;;1.30;90.50;;;0.63;83.13;99562.03;5081102;28;20547;-72
2023/01/25 04:21:17;;;;;;;22.93;14.27;;;1.30;90.40;;;0.65;83.50;99560.13;5079652;28;21019;-72
2023/01/25 04:23:46;;;;;;;24.43;14.30;;;1.30;90.60;;;0.43;84.26;99543.09;5086458;28;20550;-74
2023/01/25 04:26:13;;;;;;;23.17;14.53;;;1.30;91.00;;;0.64;84.18;99545.13;5083179;28;20505;-75
2023/01/25 04:28:41;;;;;;;22.40;13.73;;;1.20;91.40;;;-0.07;83.54;99411.13;5076780;28;20450;-73
2023/01/25 04:31:08;;;;;;;23.57;12.40;;;1.30;91.30;;;0.54;83.79;99544.97;5083678;28;20459;-71
2023/01/25 04:33:35;;;;;;;25.00;14.30;;;1.20;91.00;;;0.77;83.48;99540.59;5086460;28;20524;-72
2023/01/25 04:36:03;;;;;;;21.10;13.27;;;1.30;91.40;;;0.68;82.90;99538.59;5085674;28;20486;-72
2023/01/25 04:38:30;;;;;;;26.03;14.63;;;1.30;90.90;;;0.72;83.33;99524.13;5083363;28;20462;-74
2023/01/25 04:40:59;;;;;;;21.33;13.93;;;1.30;90.90;;;0.68;82.85;99525.28;5070563;28;20720;-71
2023/01/25 04:43:27;;;;;;;21.20;13.60;;;1.30;90.40;;;0.53;83.24;99519.31;5100938;28;20440;-72
2023/01/25 04:45:54;;;;;;;19.73;13.20;;;1.20;90.50;;;0.46;83.38;99524.25;5080251;28;20491;-73
2023/01/25 04:48:21;;;;;;;18.57;11.60;;;1.20;90.20;;;0.67;82.50;99518.28;5082303;28;20544;-72
2023/01/25 04:50:48;;;;;;;20.70;12.07;;;1.20;90.00;;;0.58;82.15;99517.16;5079063;28;20462;-72
2023/01/25 04:53:16;;;;;;;19.17;12.70;;;1.20;88.80;;;0.71;81.27;99506.47;5080293;28;20939;-72
2023/01/25 04:55:47;;;;;;;17.40;12.10;;;1.30;88.80;;;0.72;81.38;99513.47;5072879;28;20470;-73
2023/01/25 04:58:15;;;;;;;16.83;10.80;;;1.20;89.10;;;0.70;80.62;99502.94;5085299;28;20473;-72
2023/01/25 05:00:43;;;;;;;19.40;11.90;;;1.30;87.30;;;0.66;81.04;99516.59;5080875;28;20523;-73
2023/01/25 05:03:10;;;;;;;22.10;13.30;;;1.30;87.00;;;0.28;81.45;99503.38;5077038;28;20458;-72
2023/01/25 05:05:37;;;;;;;15.83;12.03;;;1.20;86.90;;;0.44;82.46;99512.00;5076451;28;20471;-73
2023/01/25 05:08:05;;;;;;;20.80;13.37;;;1.10;88.40;;;0.35;81.89;99490.47;5084923;28;20455;-73
2023/01/25 05:10:32;;;;;;;19.87;13.20;;;1.10;88.10;;;0.24;82.94;99509.88;5083050;28;20955;-71
2023/01/25 05:13:01;;;;;;;20.17;12.80;;;1.00;88.90;;;0.44;82.11;99502.25;5081114;28;20452;-72
2023/01/25 05:15:29;;;;;;;17.40;11.03;;;1.10;88.70;;;0.41;81.57;99484.69;5087434;28;20447;-72
2023/01/25 05:17:57;;;;;;;15.43;10.50;;;1.10;87.80;;;0.39;81.01;99491.94;5089111;28;20467;-73
2023/01/25 05:20:24;;;;;;;16.50;10.90;;;1.10;86.40;;;0.41;81.36;99499.81;5074614;28;20483;-73
2023/01/25 05:22:51;;;;;;;14.87;9.47;;;1.10;86.50;;;0.43;81.20;99492.56;5074685;28;20446;-73
2023/01/25 05:28:05;;;;;;;15.40;11.00;;;1.10;87.50;;;0.34;80.80;99493.25;5088723;28;20500;-72
2023/01/25 05:30:34;;;;;;;16.30;10.67;;;1.10;86.80;;;0.47;80.85;99488.72;5086553;28;20453;-73
2023/01/25 05:33:02;;;;;;;18.17;11.53;;;1.10;87.00;;;0.54;81.16;99500.59;5084944;28;20462;-72
2023/01/25 05:35:29;;;;;;;18.13;11.97;;;1.10;87.40;;;0.41;81.53;99505.97;5081124;28;20462;-72
2023/01/25 05:37:57;;;;;;;19.37;12.10;;;1.10;87.30;;;0.40;81.28;99482.16;5079913;28;20784;-74
2023/01/25 05:40:25;;;;;;;20.40;11.27;;;1.10;87.40;;;0.49;81.72;99505.41;5075616;28;20450;-74
2023/01/25 05:42:56;;;;;;;21.33;11.63;;;1.20;87.90;;;0.56;80.89;99493.34;5082745;28;20477;-75
2023/01/25 05:45:23;;;;;;;17.90;11.97;;;1.20;87.40;;;0.58;80.81;99503.03;5077466;28;20477;-75
2023/01/25 05:47:54;;;;;;;18.43;10.37;;;1.20;87.20;;;0.28;80.41;99474.13;5079819;28;20547;-77
2023/01/25 05:50:23;;;;;;;19.67;11.53;;;1.10;85.70;;;0.52;80.44;99501.66;5102043;28;20446;-73
2023/01/25 05:52:50;;;;;;;17.73;11.60;;;1.10;86.50;;;0.41;81.03;99498.00;5085780;28;20495;-72
2023/01/25 05:55:18;;;;;;;16.00;10.63;;;1.10;86.40;;;0.51;80.82;99495.47;5079610;28;20544;-71
2023/01/25 05:57:45;;;;;;;15.53;11.70;;;1.10;86.90;;;0.39;81.29;99501.75;5088031;28;20455;-73
2023/01/25 06:00:13;;;;;;;18.47;11.47;;;1.10;86.40;;;0.50;80.67;99501.78;5080977;28;21011;-73
2023/01/25 06:02:41;;;;;;;17.13;10.97;;;1.10;86.50;;;0.32;81.47;99498.69;5078631;28;20466;-71
2023/01/25 06:05:10;;;;;;;17.83;11.50;;;1.10;86.70;;;0.41;81.56;99499.81;5074362;28;20852;-72
2023/01/25 06:07:39;;;;;;;17.00;11.20;;;1.00;87.60;;;0.30;81.93;99497.09;5084480;28;20954;-72
2023/01/25 06:10:08;;;;;;;23.50;14.03;;;1.00;87.70;;;0.28;82.30;99494.53;5078314;28;20501;-73
2023/01/25 06:12:35;;;;;;;18.37;11.90;;;1.00;88.70;;;-0.05;81.61;99419.84;5078230;28;20470;-75
2023/01/25 06:15:03;;;;;;;22.60;14.10;;;1.00;88.20;;;0.64;81.18;99494.56;5074778;28;20453;-74
2023/01/25 06:17:30;;;;;;;21.43;12.50;;;1.10;88.90;;;0.49;81.39;99491.25;5085865;28;20540;-73
2023/01/25 06:19:57;;;;;;;20.07;12.60;;;1.10;87.60;;;0.51;81.77;99492.00;5089289;28;21283;-72
2023/01/25 06:22:26;;;;;;;20.87;12.87;;;1.10;88.10;;;0.42;81.75;99486.38;5078380;28;20471;-73
2023/01/25 06:24:53;;;;;;;22.03;13.73;;;1.20;87.40;;;0.62;81.65;99486.72;5080752;28;20471;-74
2023/01/25 06:27:20;;;;;;;19.03;11.70;;;1.20;88.30;;;0.62;81.67;99477.88;5071268;28;20496;-80
2023/01/25 06:29:47;;;;;;;19.10;13.20;;;1.20;88.30;;;0.47;81.61;99464.78;5076925;28;20446;-72
2023/01/25 06:32:15;;;;;;;24.13;14.27;;;1.20;88.60;;;0.64;81.88;99475.94;5084953;28;20459;-73
2023/01/25 06:34:42;;;;;;;23.00;13.70;;;1.20;89.00;;;0.82;80.58;99474.53;5082631;28;20455;-72
2023/01/25 06:37:09;;;;;;;23.30;12.67;;;1.30;88.10;;;0.61;80.75;99484.16;5076898;28;20451;-75
2023/01/25 06:39:37;;;;;;;24.70;14.43;;;1.30;86.70;;;0.65;81.51;99482.97;5094564;27;20967;-76
2023/01/25 06:42:05;;;;;;;21.40;13.47;;;1.20;88.00;;;0.60;81.21;99485.13;5083101;28;20451;-72
2023/01/25 06:44:33;;;;;;;23.60;15.77;;;1.30;87.80;;;0.31;82.16;99478.38;5094091;28;20466;-74
2023/01/25 06:47:00;;;;;;;22.63;15.60;;;1.10;88.00;;;0.60;81.84;99482.47;5094279;28;20881;-72
2023/01/25 06:49:27;;;;;;;20.00;13.17;;;1.10;88.90;;;0.82;81.43;99482.53;5091716;28;20475;-74
2023/01/25 06:51:55;;;;;;;23.27;13.77;;;1.20;89.30;;;0.95;80.29;99481.59;5079944;28;20462;-73
2023/01/25 06:54:23;;;;;;;20.57;14.17;;;1.40;87.90;;;0.78;80.73;99481.06;5085255;28;20489;-77
2023/01/25 06:56:51;;;;;;;23.63;14.00;;;1.40;87.50;;;0.78;80.23;99469.59;5064759;28;20443;-75
2023/01/25 06:59:19;;;;;;;21.63;13.27;;;1.40;86.70;;;0.68;80.67;99464.09;5075678;28;20447;-74
2023/01/25 07:01:46;;;;;;;21.17;14.93;;;1.30;86.70;;;0.68;80.65;99470.28;5076086;28;20498;-73
2023/01/25 07:04:13;;;;;;;20.50;14.00;;;1.30;86.20;;;0.54;81.45;99476.66;5078790;28;20523;-73
2023/01/25 07:06:41;;;;;;;19.33;12.30;;;1.20;87.10;;;0.27;81.15;99472.44;5097599;27;20533;-73
2023/01/25 07:09:11;;;;;;;18.17;13.27;;;1.10;86.00;;;0.31;81.45;99473.06;5083621;28;20531;-73
2023/01/25 07:11:39;;;;;;;18.40;12.60;;;1.00;86.70;;;0.30;81.69;99470.50;5087683;28;20933;-73
2023/01/25 07:14:07;;;;;;;19.40;12.00;;;1.00;87.40;;;0.37;82.02;99477.06;5082755;28;20446;-73
2023/01/25 07:16:37;;;;;;;21.30;13.10;;;1.00;88.60;;;0.27;82.25;99475.09;5075585;28;20452;-74
2023/01/25 07:19:05;;;;;;;23.40;14.30;;;1.00;88.40;;;0.43;81.97;99471.28;5085443;28;20462;-73
2023/01/25 07:21:32;;;;;;;23.30;12.77;;;1.00;88.80;;;0.40;81.96;99460.88;5079574;28;21377;-72
2023/01/25 07:24:02;;;;;;;22.47;14.97;;;1.10;89.20;;;0.40;81.79;99466.22;5072241;28;20451;-74
2023/01/25 07:26:29;;;;;;;22.10;13.67;;;1.10;88.20;;;0.58;81.77;99479.09;5074730;28;20464;-73
2023/01/25 07:28:58;;;;;;;21.33;13.40;;;1.10;88.60;;;0.54;80.63;99452.72;5085945;28;20481;-73
2023/01/25 07:31:27;;;;;;;24.93;13.03;;;1.20;88.20;;;0.50;81.06;99469.84;5088571;28;21182;-74
2023/01/25 07:33:57;;;;;;;20.80;12.77;;;1.20;87.00;;;0.69;80.77;99476.47;5087348;28;20474;-71
2023/01/25 07:36:25;;;;;;;27.20;17.03;;;1.20;87.50;;;0.65;80.69;99474.97;5083993;28;20457;-74
2023/01/25 07:38:54;;;;;;;21.97;13.90;;;1.20;87.80;;;0.44;82.00;99462.34;5079845;28;20506;-73
2023/01/25 07:41:22;;;;;;;28.27;16.87;;;1.10;88.30;;;0.74;80.94;99468.13;5086442;28;20459;-74
2023/01/25 07:43:50;;;;;;;23.60;15.10;;;1.30;88.10;;;0.75;80.74;99465.34;5087596;28;20508;-74
2023/01/25 07:46:17;;;;;;;23.00;15.07;;;1.30;87.50;;;0.63;80.75;99458.28;5081742;28;20532;-72
2023/01/25 07:48:49;;;;;;;25.60;14.20;;;1.30;86.90;;;0.49;80.96;99462.84;5085919;28;20446;-73
2023/01/25 07:51:25;;;;;;;24.47;15.13;;;1.30;86.80;;;0.53;81.41;99474.09;5079591;28;20458;-75
2023/01/25 07:53:55;;;;;;;22.23;13.33;;;1.20;87.20;;;0.39;81.25;99464.50;5080425;28;21108;-73
2023/01/25 07:56:24;;;;;;;23.67;14.40;;;1.10;86.70;;;0.43;81.13;99465.97;5083274;28;20851;-75
2023/01/25 07:58:53;;;;;;;20.00;13.17;;;1.10;86.90;;;0.50;80.92;99472.50;5087708;28;20794;-72
2023/01/25 08:01:22;;;;;;;21.80;13.67;;;1.10;87.10;;;0.56;80.90;99465.88;5078964;28;20466;-73
2023/01/25 08:03:52;;;;;;;19.20;13.60;;;1.10;87.40;;;0.49;80.75;99470.81;5072629;28;20960;-71
2023/01/25 08:06:26;;;;;;;21.83;13.63;;;1.10;86.70;;;0.46;81.05;99481.69;5079657;28;20540;-72
2023/01/25 08:08:54;;;;;;;19.37;13.03;;;1.10;86.80;;;0.50;81.10;99483.16;5084762;28;20459;-72
2023/01/25 08:11:24;;;;;;;22.00;14.10;;;1.10;86.70;;;0.69;80.31;99484.47;5074611;28;20467;-74
2023/01/25 08:13:52;;;;;;;18.20;13.60;;;1.30;86.90;;;0.58;79.90;99484.41;5079149;28;20520;-72
2023/01/25 08:16:22;;;;;;;19.50;12.77;;;1.30;85.40;;;0.47;80.66;99469.25;5084330;28;20502;-74
2023/01/25 08:18:52;;;;;;;19.80;13.00;;;1.20;85.80;;;0.60;80.51;99463.84;5081950;28;20511;-75
2023/01/25 08:21:19;;;;;;;19.50;12.20;;;1.20;86.00;;;0.65;80.02;99480.31;5084664;28;20473;-74
2023/01/25 08:23:47;;;;;;;17.87;12.43;;;1.20;85.70;;;0.58;79.41;99468.44;5084395;28;20535;-73
2023/01/25 08:26:16;;;;;;;17.87;11.77;;;1.20;85.00;;;0.50;80.29;99477.00;5080883;28;20550;-74
2023/01/25 08:28:44;;;;;;;17.33;11.73;;;1.10;85.00;;;0.59;79.71;99481.63;5088846;28;20464;-73
2023/01/25 08:31:14;;;;;;;19.00;10.43;;;1.20;85.00;;;0.67;79.06;99475.72;5085208;28;20865;-74
2023/01/25 08:33:43;;;;;;;15.53;10.63;;;1.20;84.40;;;0.73;78.60;99474.41;5102498;27;20955;-71
2023/01/25 08:36:13;;;;;;;18.53;11.00;;;1.30;83.90;;;0.52;79.27;99481.22;5083391;28;20461;-73
2023/01/25 08:38:41;;;;;;;20.27;12.10;;;1.20;83.60;;;0.34;79.66;99475.50;5084574;28;20519;-73
2023/01/25 08:41:10;;;;;;;18.27;12.37;;;1.10;83.80;;;0.49;79.51;99476.13;5070202;28;20443;-72
2023/01/25 08:43:37;;;;;;;19.73;12.63;;;1.10;84.20;;;0.40;79.92;99474.19;5070291;28;20463;-72
2023/01/25 08:46:06;;;;;;;17.83;12.43;;;1.10;84.50;;;0.39;80.07;99465.34;5075357;28;20482;-76
2023/01/25 08:48:33;;;;;;;18.87;11.93;;;1.10;84.60;;;0.44;79.27;99464.16;5083047;28;20486;-76
2023/01/25 08:51:01;;;;;;;18.23;10.90;;;1.10;84.80;;;0.46;79.16;99449.78;5075671;28;20955;-73
2023/01/25 08:53:31;;;;;;;16.37;11.50;;;1.10;84.10;;;0.45;79.10;99461.38;5075895;28;20455;-73
2023/01/25 08:56:04;;;;;;;17.80;12.10;;;1.10;83.70;;;0.26;80.03;99465.41;5089162;28;20562;-72
2023/01/25 08:58:31;;;;;;;21.53;13.90;;;1.10;84.20;;;0.40;80.58;99463.56;5086741;28;21035;-72
2023/01/25 09:01:03;;;;;;;21.43;13.83;;;1.10;85.10;;;0.59;79.63;99455.00;5078857;28;20502;-72
2023/01/25 09:03:30;;;;;;;19.00;12.37;;;1.10;85.20;;;0.47;79.60;99446.16;5106914;28;20456;-72
2023/01/25 09:05:58;;;;;;;19.90;12.67;;;1.20;84.60;;;0.54;78.90;99446.53;5089014;28;20489;-73
2023/01/25 09:08:26;;;;;;;17.40;11.50;;;1.20;83.90;;;0.40;79.24;99452.91;5077234;28;20470;-73
2023/01/25 09:10:54;;;;;;;16.50;11.30;;;1.20;83.30;;;0.37;80.11;99455.78;5079246;28;20460;-73
2023/01/25 09:13:21;;;;;;;16.80;12.23;;;1.10;83.80;;;0.50;79.69;99443.25;5085603;28;20801;-71
2023/01/25 09:15:48;;;;;;;24.83;13.03;;;1.10;84.30;;;0.56;79.34;99433.97;5079451;28;20529;-72
2023/01/25 09:18:16;;;;;;;19.80;11.67;;;1.10;84.70;;;0.99;78.06;99440.50;5080143;28;21152;-71
2023/01/25 09:20:43;;;;;;;19.23;12.27;;;1.30;84.20;;;1.01;77.15;99435.91;5084568;28;20532;-72
2023/01/25 09:23:10;;;;;;;16.33;11.10;;;1.50;82.40;;;0.73;78.18;99438.03;5078204;28;20458;-72
2023/01/25 09:25:37;;;;;;;18.20;11.33;;;1.40;82.20;;;0.13;79.06;99374.25;5085541;28;20483;-70
2023/01/25 09:28:10;;;;;;;16.47;10.53;;;1.20;82.60;;;0.41;79.00;99426.19;5084266;28;22939;-73
2023/01/25 09:30:38;;;;;;;17.17;11.57;;;1.20;83.00;;;0.55;78.43;99441.13;5080772;28;20540;-72
2023/01/25 09:33:06;;;;;;;18.10;11.80;;;1.20;82.60;;;0.65;78.33;99427.97;5090030;28;20486;-72
2023/01/25 09:35:34;;;;;;;17.93;11.07;;;1.30;82.90;;;0.66;77.94;99444.75;5078536;28;20456;-72
2023/01/25 09:38:02;;;;;;;17.10;11.60;;;1.30;82.50;;;0.83;77.47;99436.34;5090687;28;21350;-72
2023/01/25 09:40:38;;;;;;;18.90;12.13;;;1.40;82.40;;;1.09;76.98;99436.13;5105803;28;20534;-71
2023/01/25 09:43:17;;;;;;;17.60;12.50;;;1.50;82.40;;;1.01;76.99;99433.22;5082789;28;20627;-72
2023/01/25 09:45:45;;;;;;;19.30;12.73;;;1.60;81.90;;;0.78;77.98;99435.84;5086681;28;20509;-72
2023/01/25 09:48:22;;;;;;;21.60;13.40;;;1.50;81.90;;;0.78;78.24;99429.69;5089845;28;20452;-72
2023/01/25 09:51:17;;;;;;;19.20;12.30;;;1.50;82.00;;;0.39;79.38;99429.94;5092977;28;20458;-71
2023/01/25 09:53:49;;;;;;;17.90;11.27;;;1.20;82.30;;;1.03;77.60;99419.78;5087220;28;20462;-72
2023/01/25 09:56:23;;;;;;;17.83;11.90;;;1.40;82.90;;;0.87;77.44;99430.78;5085444;28;20469;-72
2023/01/25 09:58:58;;;;;;;20.43;11.03;;;1.40;82.50;;;1.30;76.49;99422.13;5084494;28;20455;-72
2023/01/25 10:01:30;;;;;;;18.40;11.57;;;1.60;81.90;;;1.00;76.89;99415.56;5078789;28;20467;-71
2023/01/25 10:04:01;;;;;;;16.47;11.50;;;1.60;80.90;;;1.04;76.96;99411.69;5100301;27;20774;-73
2023/01/25 10:06:38;;;;;;;20.20;12.60;;;1.60;81.60;;;0.91;77.83;99416.28;5096204;27;20474;-71
2023/01/25 10:09:19;;;;;;;17.90;12.20;;;1.50;81.40;;;0.96;77.20;99409.63;5078499;28;20525;-71
2023/01/25 10:11:47;;;;;;;15.33;11.30;;;1.60;81.70;;;0.78;78.01;99413.72;5082761;28;20524;-72
2023/01/25 10:14:18;;;;;;;17.40;13.30;;;1.50;81.60;;;1.06;77.11;99407.09;5080903;28;20443;-72
2023/01/25 10:17:06;;;;;;;16.57;10.80;;;1.50;81.70;;;1.24;77.57;99403.94;5074992;28;21109;-71
2023/01/25 10:19:51;;;;;;;18.03;11.27;;;1.60;82.50;;;1.18;76.22;99404.44;5080956;28;20464;-72
2023/01/25 10:22:22;;;;;;;19.57;13.30;;;1.70;80.90;;;1.22;76.20;99411.22;5082445;28;20505;-72
2023/01/25 10:25:16;;;;;;;20.17;12.83;;;1.70;80.80;;;1.02;76.95;99405.66;5070252;28;20459;-71
2023/01/25 10:27:54;;;;;;;19.00;12.67;;;1.70;80.80;;;0.97;77.54;99405.13;5067166;28;20487;-74
2023/01/25 10:30:27;;;;;;;20.47;12.83;;;1.60;81.20;;;0.77;77.89;99388.91;5081618;28;20984;-73